createdAt,value
2022-11-14T00:01:00.389Z,93.90
2022-11-14T00:03:27.396Z,93.90
2022-11-14T00:05:54.093Z,93.60
2022-11-14T00:08:25.155Z,93.20
2022-11-14T00:10:52.280Z,93.20
2022-11-14T00:13:20.484Z,93.00
2022-11-14T00:15:54.266Z,93.10
2022-11-14T00:18:21.308Z,92.60
2022-11-14T00:20:52.619Z,92.90
2022-11-14T00:23:20.951Z,92.90
2022-11-14T00:25:47.789Z,93.40
2022-11-14T00:28:14.733Z,93.60
2022-11-14T00:30:41.521Z,93.10
2022-11-14T00:33:08.270Z,93.60
2022-11-14T00:35:34.965Z,93.70
2022-11-14T00:38:01.709Z,93.50
2022-11-14T00:40:28.807Z,93.50
2022-11-14T00:42:55.589Z,93.20
2022-11-14T00:45:22.326Z,92.80
2022-11-14T00:47:49.039Z,93.10
2022-11-14T00:50:18.804Z,93.30
2022-11-14T00:52:45.569Z,93.40
2022-11-14T00:55:12.259Z,93.10
2022-11-14T00:57:38.939Z,93.50
2022-11-14T01:00:07.043Z,93.30
2022-11-14T01:02:33.868Z,93.50
2022-11-14T01:05:02.184Z,94.30
2022-11-14T01:07:29.374Z,92.90
2022-11-14T01:09:56.108Z,93.00
2022-11-14T01:12:22.935Z,94.10
2022-11-14T01:14:49.738Z,94.00
2022-11-14T01:17:16.546Z,93.90
2022-11-14T01:19:43.334Z,93.80
2022-11-14T01:22:10.048Z,93.70
2022-11-14T01:24:37.402Z,93.10
2022-11-14T01:27:04.168Z,93.20
2022-11-14T01:29:30.938Z,93.50
2022-11-14T01:31:57.681Z,93.20
2022-11-14T01:34:24.531Z,93.30
2022-11-14T01:36:51.222Z,93.10
2022-11-14T01:39:18.665Z,93.30
2022-11-14T01:41:45.404Z,93.50
2022-11-14T01:44:17.380Z,93.50
2022-11-14T01:46:48.448Z,93.40
2022-11-14T01:49:29.487Z,93.50
2022-11-14T01:52:09.519Z,93.40
2022-11-14T01:54:41.681Z,93.40
2022-11-14T01:57:10.455Z,93.20
2022-11-14T01:59:50.498Z,93.50
2022-11-14T02:02:21.397Z,93.60
2022-11-14T02:04:53.838Z,93.50
2022-11-14T02:07:20.789Z,93.40
2022-11-14T02:09:48.811Z,93.40
2022-11-14T02:12:18.146Z,93.50
2022-11-14T02:14:47.148Z,93.50
2022-11-14T02:17:28.998Z,93.20
2022-11-14T02:20:11.843Z,93.20
2022-11-14T02:22:40.529Z,93.00
2022-11-14T02:25:09.537Z,93.30
2022-11-14T02:27:39.104Z,93.30
2022-11-14T02:30:12.229Z,93.20
2022-11-14T02:35:25.724Z,93.50
2022-11-14T02:37:52.463Z,93.50
2022-11-14T02:40:19.345Z,93.50
2022-11-14T02:42:46.054Z,93.50
2022-11-14T02:45:14.216Z,93.50
2022-11-14T02:47:40.922Z,93.10
2022-11-14T02:50:07.997Z,93.40
2022-11-14T02:52:34.723Z,93.30
2022-11-14T02:55:01.584Z,93.40
2022-11-14T02:57:29.283Z,93.60
2022-11-14T02:59:56.165Z,93.40
2022-11-14T03:02:22.888Z,93.40
2022-11-14T03:04:49.752Z,93.60
2022-11-14T03:07:16.598Z,94.20
2022-11-14T03:09:43.361Z,94.40
2022-11-14T03:12:10.534Z,94.30
2022-11-14T03:14:38.187Z,93.50
2022-11-14T03:17:04.988Z,93.30
2022-11-14T03:19:31.911Z,93.20
2022-11-14T03:21:58.656Z,93.10
2022-11-14T03:24:25.520Z,93.30
2022-11-14T03:26:52.336Z,93.00
2022-11-14T03:29:19.150Z,93.20
2022-11-14T03:31:46.045Z,93.30
2022-11-14T03:34:13.025Z,93.40
2022-11-14T03:36:39.936Z,93.50
2022-11-14T03:39:07.009Z,93.30
2022-11-14T03:41:33.777Z,93.50
2022-11-14T03:44:00.607Z,93.30
2022-11-14T03:46:27.375Z,93.40
2022-11-14T03:48:54.219Z,93.60
2022-11-14T03:51:21.240Z,93.40
2022-11-14T03:53:47.994Z,93.40
2022-11-14T03:56:14.682Z,93.40
2022-11-14T03:58:41.456Z,93.10
2022-11-14T04:01:08.236Z,93.20
2022-11-14T04:03:35.010Z,93.20
2022-11-14T04:06:02.876Z,93.80
2022-11-14T04:08:30.097Z,93.90
2022-11-14T04:10:57.172Z,94.40
2022-11-14T04:13:24.020Z,94.20
2022-11-14T04:15:58.293Z,94.40
2022-11-14T04:18:26.453Z,94.40
2022-11-14T04:20:53.541Z,94.80
2022-11-14T04:23:20.552Z,94.00
2022-11-14T04:25:47.725Z,94.10
2022-11-14T04:28:14.582Z,94.00
2022-11-14T04:30:41.673Z,94.10
2022-11-14T04:33:08.479Z,94.50
2022-11-14T04:35:35.288Z,94.40
2022-11-14T04:38:02.138Z,94.00
2022-11-14T04:40:29.835Z,94.10
2022-11-14T04:42:56.572Z,93.90
2022-11-14T04:45:23.384Z,93.70
2022-11-14T04:47:50.170Z,93.80
2022-11-14T04:50:17.207Z,93.70
2022-11-14T04:52:44.584Z,93.80
2022-11-14T04:55:11.324Z,92.90
2022-11-14T04:57:38.094Z,92.70
2022-11-14T05:00:05.809Z,93.30
2022-11-14T05:02:33.341Z,93.90
2022-11-14T05:05:00.047Z,93.80
2022-11-14T05:07:26.934Z,93.70
2022-11-14T05:09:53.761Z,93.60
2022-11-14T05:12:20.508Z,93.80
2022-11-14T05:14:47.320Z,94.20
2022-11-14T05:17:14.112Z,93.90
2022-11-14T05:19:40.887Z,93.90
2022-11-14T05:22:07.630Z,94.00
2022-11-14T05:24:34.350Z,94.30
2022-11-14T05:27:01.101Z,94.60
2022-11-14T05:29:27.848Z,94.60
2022-11-14T05:31:54.638Z,94.50
2022-11-14T05:34:21.452Z,94.20
2022-11-14T05:36:48.171Z,94.00
2022-11-14T05:39:15.978Z,94.30
2022-11-14T05:41:42.789Z,94.50
2022-11-14T05:44:09.617Z,94.50
2022-11-14T05:46:36.459Z,94.40
2022-11-14T05:49:03.304Z,94.50
2022-11-14T05:51:30.076Z,94.50
2022-11-14T05:53:56.888Z,94.50
2022-11-14T05:56:23.694Z,94.40
2022-11-14T05:58:50.394Z,93.90
2022-11-14T06:01:19.042Z,94.00
2022-11-14T06:03:47.612Z,94.20
2022-11-14T06:06:18.217Z,94.00
2022-11-14T06:08:44.987Z,93.80
2022-11-14T06:11:14.528Z,93.70
2022-11-14T06:13:41.770Z,93.80
2022-11-14T06:16:15.100Z,94.00
2022-11-14T06:18:43.314Z,94.00
2022-11-14T06:21:18.027Z,94.30
2022-11-14T06:23:46.056Z,94.20
2022-11-14T06:26:30.516Z,94.10
2022-11-14T06:28:58.263Z,94.00
2022-11-14T06:31:26.307Z,93.90
2022-11-14T06:33:53.420Z,93.90
2022-11-14T06:36:20.215Z,94.10
2022-11-14T06:38:46.964Z,94.20
2022-11-14T06:41:18.889Z,94.20
2022-11-14T06:43:48.737Z,93.90
2022-11-14T06:46:18.184Z,93.80
2022-11-14T06:48:46.827Z,93.80
2022-11-14T06:51:15.119Z,93.70
2022-11-14T06:53:42.443Z,93.40
2022-11-14T06:56:14.552Z,93.60
2022-11-14T06:58:44.503Z,93.60
2022-11-14T07:01:22.889Z,93.60
2022-11-14T07:03:50.436Z,93.90
2022-11-14T07:06:20.188Z,94.00
2022-11-14T07:08:47.223Z,94.10
2022-11-14T07:11:23.259Z,93.90
2022-11-14T07:13:58.330Z,94.10
2022-11-14T07:16:30.551Z,94.30
2022-11-14T07:19:00.747Z,94.30
2022-11-14T07:21:29.462Z,94.20
2022-11-14T07:23:57.222Z,94.20
2022-11-14T07:26:24.221Z,94.20
2022-11-14T07:28:54.463Z,94.30
2022-11-14T07:31:24.212Z,94.40
2022-11-14T07:33:51.293Z,94.30
2022-11-14T07:36:18.081Z,94.10
2022-11-14T07:38:44.952Z,94.10
2022-11-14T07:41:14.141Z,94.20
2022-11-14T07:43:41.392Z,94.30
2022-11-14T07:46:11.986Z,94.30
2022-11-14T07:48:39.316Z,94.00
2022-11-14T07:51:07.932Z,93.70
2022-11-14T07:53:35.161Z,94.00
2022-11-14T07:56:05.064Z,94.00
2022-11-14T07:58:32.146Z,94.10
2022-11-14T08:01:02.692Z,94.10
2022-11-14T08:03:30.004Z,94.20
2022-11-14T08:06:04.824Z,94.50
2022-11-14T08:08:32.107Z,94.60
2022-11-14T08:11:00.583Z,94.50
2022-11-14T08:13:32.989Z,94.60
2022-11-14T08:16:12.463Z,94.50
2022-11-14T08:18:40.462Z,94.50
2022-11-14T08:21:07.640Z,94.60
2022-11-14T08:23:34.376Z,94.50
2022-11-14T08:26:01.174Z,94.40
2022-11-14T08:28:28.996Z,94.40
2022-11-14T08:31:01.600Z,94.40
2022-11-14T08:33:29.751Z,94.40
2022-11-14T08:36:00.820Z,94.40
2022-11-14T08:38:28.823Z,94.40
2022-11-14T08:40:59.135Z,94.40
2022-11-14T08:43:26.195Z,94.40
2022-11-14T08:45:53.102Z,94.40
2022-11-14T08:48:19.816Z,94.30
2022-11-14T08:50:46.561Z,94.40
2022-11-14T08:53:13.291Z,94.40
2022-11-14T08:55:44.865Z,94.60
2022-11-14T08:58:11.809Z,94.90
2022-11-14T09:00:39.464Z,95.10
2022-11-14T09:03:10.678Z,95.00
2022-11-14T09:05:37.723Z,95.00
2022-11-14T09:08:05.032Z,94.60
2022-11-14T09:10:32.181Z,94.30
2022-11-14T09:13:00.248Z,94.00
2022-11-14T09:15:30.146Z,93.60
2022-11-14T09:17:58.686Z,93.30
2022-11-14T09:20:31.642Z,92.70
2022-11-14T09:23:00.070Z,92.80
2022-11-14T09:25:27.479Z,92.30
2022-11-14T09:27:55.995Z,92.40
2022-11-14T09:30:23.723Z,91.60
2022-11-14T09:32:51.176Z,91.40
2022-11-14T09:35:18.821Z,90.90
2022-11-14T09:37:47.651Z,91.00
2022-11-14T09:40:14.589Z,90.60
2022-11-14T09:42:50.153Z,90.00
2022-11-14T09:45:17.340Z,89.50
2022-11-14T09:47:52.731Z,89.20
2022-11-14T09:50:26.302Z,88.50
2022-11-14T09:52:55.737Z,88.00
2022-11-14T09:55:24.218Z,88.40
2022-11-14T09:57:52.284Z,89.00
2022-11-14T10:00:22.500Z,87.90
2022-11-14T10:02:55.603Z,88.80
2022-11-14T10:05:32.880Z,87.40
2022-11-14T10:08:23.337Z,86.30
2022-11-14T10:10:54.549Z,85.10
2022-11-14T10:13:47.099Z,85.10
2022-11-14T10:16:44.526Z,85.20
2022-11-14T10:19:20.616Z,85.60
2022-11-14T10:22:02.346Z,84.70
2022-11-14T10:24:38.491Z,84.30
2022-11-14T10:27:20.133Z,84.80
2022-11-14T10:30:11.593Z,84.80
2022-11-14T10:32:57.383Z,83.90
2022-11-14T10:35:33.834Z,84.00
2022-11-14T10:38:29.980Z,84.10
2022-11-14T10:41:04.657Z,83.10
2022-11-14T10:43:46.703Z,83.40
2022-11-14T10:46:45.027Z,82.50
2022-11-14T10:49:24.576Z,82.30
2022-11-14T10:51:53.861Z,82.80
2022-11-14T10:54:41.680Z,81.10
2022-11-14T10:57:19.934Z,80.30
2022-11-14T10:59:47.438Z,79.30
2022-11-14T11:02:14.592Z,78.90
2022-11-14T11:04:43.641Z,76.10
2022-11-14T11:07:30.633Z,74.90
2022-11-14T11:10:20.463Z,74.30
2022-11-14T11:12:50.366Z,73.00
2022-11-14T11:15:23.141Z,75.50
2022-11-14T11:18:01.029Z,73.60
2022-11-14T11:20:40.984Z,72.10
2022-11-14T11:23:26.468Z,72.40
2022-11-14T11:26:09.407Z,72.00
2022-11-14T11:28:36.985Z,72.20
2022-11-14T11:31:06.879Z,73.30
2022-11-14T11:33:35.723Z,72.50
2022-11-14T11:36:18.269Z,71.30
2022-11-14T11:38:47.931Z,70.10
2022-11-14T11:44:16.496Z,68.00
2022-11-14T11:46:57.546Z,68.20
2022-11-14T11:49:30.513Z,68.00
2022-11-14T11:52:04.737Z,69.10
2022-11-14T11:54:43.186Z,68.20
2022-11-14T11:57:21.176Z,67.80
2022-11-14T11:59:54.107Z,65.60
2022-11-14T12:02:30.781Z,66.30
2022-11-14T12:04:59.059Z,64.60
2022-11-14T12:07:44.780Z,64.30
2022-11-14T12:10:21.880Z,61.70
2022-11-14T12:12:57.731Z,60.20
2022-11-14T12:15:34.421Z,61.60
2022-11-14T12:18:31.989Z,60.80
2022-11-14T12:21:11.814Z,60.60
2022-11-14T12:24:00.310Z,59.40
2022-11-14T12:27:15.285Z,58.60
2022-11-14T12:30:17.988Z,62.60
2022-11-14T12:32:49.496Z,62.90
2022-11-14T12:35:27.294Z,63.50
2022-11-14T12:37:56.279Z,65.00
2022-11-14T12:40:25.777Z,65.20
2022-11-14T12:42:52.932Z,65.60
2022-11-14T12:45:41.380Z,67.80
2022-11-14T12:48:30.924Z,63.20
2022-11-14T12:50:58.836Z,58.80
2022-11-14T12:53:37.647Z,56.20
2022-11-14T12:56:31.708Z,54.60
2022-11-14T12:59:16.984Z,51.80
2022-11-14T13:01:52.648Z,49.40
2022-11-14T13:04:45.936Z,48.90
2022-11-14T13:07:41.222Z,47.90
2022-11-14T13:10:13.894Z,49.30
2022-11-14T13:13:26.835Z,50.90
2022-11-14T13:16:14.365Z,51.90
2022-11-14T13:19:15.904Z,51.80
2022-11-14T13:22:14.406Z,52.50
2022-11-14T13:24:59.392Z,52.10
2022-11-14T13:27:52.098Z,50.50
2022-11-14T13:30:16.839Z,52.50
2022-11-14T13:32:44.571Z,52.50
2022-11-14T13:35:26.071Z,50.90
2022-11-14T13:38:11.549Z,48.80
2022-11-14T13:41:05.622Z,50.10
2022-11-14T13:44:13.611Z,46.90
2022-11-14T13:46:56.905Z,45.10
2022-11-14T13:49:23.672Z,42.80
2022-11-14T13:51:53.637Z,45.60
2022-11-14T13:54:20.815Z,45.30
2022-11-14T13:56:50.998Z,44.90
2022-11-14T13:59:46.244Z,45.20
2022-11-14T14:02:27.769Z,47.00
2022-11-14T14:05:12.650Z,46.30
2022-11-14T14:07:57.540Z,47.30
2022-11-14T14:10:34.622Z,47.30
2022-11-14T14:13:14.392Z,48.30
2022-11-14T14:16:03.921Z,50.70
2022-11-14T14:19:10.188Z,50.70
2022-11-14T14:21:49.427Z,51.20
2022-11-14T14:24:37.524Z,53.70
2022-11-14T14:27:28.890Z,55.00
2022-11-14T14:30:09.502Z,57.60
2022-11-14T14:32:36.320Z,57.60
2022-11-14T14:35:21.853Z,55.80
2022-11-14T14:37:54.259Z,57.10
2022-11-14T14:40:38.839Z,55.60
2022-11-14T14:43:06.491Z,58.40
2022-11-14T14:45:48.977Z,61.90
2022-11-14T14:48:21.651Z,62.60
2022-11-14T14:50:51.140Z,64.20
2022-11-14T14:53:32.849Z,65.40
2022-11-14T14:56:05.750Z,66.40
2022-11-14T14:58:34.946Z,67.20
2022-11-14T15:01:08.823Z,68.70
2022-11-14T15:04:07.895Z,70.30
2022-11-14T15:06:37.889Z,71.80
2022-11-14T15:09:21.306Z,72.30
2022-11-14T15:11:52.026Z,73.30
2022-11-14T15:14:23.030Z,74.10
2022-11-14T15:16:50.963Z,75.00
2022-11-14T15:19:39.773Z,76.10
2022-11-14T15:22:10.770Z,77.10
2022-11-14T15:24:37.580Z,78.00
2022-11-14T15:27:16.204Z,79.10
2022-11-14T15:29:52.949Z,79.70
2022-11-14T15:32:25.081Z,80.60
2022-11-14T15:35:22.485Z,81.00
2022-11-14T15:38:41.951Z,81.30
2022-11-14T15:41:18.769Z,81.70
2022-11-14T15:43:45.430Z,82.10
2022-11-14T15:46:30.716Z,82.40
2022-11-14T15:48:58.093Z,82.70
2022-11-14T15:51:50.559Z,82.70
2022-11-14T15:54:24.782Z,83.00
2022-11-14T15:56:54.266Z,83.80
2022-11-14T15:59:22.664Z,84.10
2022-11-14T16:01:52.874Z,83.80
2022-11-14T16:04:23.062Z,83.30
2022-11-14T16:06:50.178Z,85.20
2022-11-14T16:09:21.129Z,85.40
2022-11-14T16:11:49.100Z,85.10
2022-11-14T16:14:16.306Z,85.50
2022-11-14T16:16:43.165Z,85.80
2022-11-14T16:19:14.016Z,86.50
2022-11-14T16:24:43.601Z,87.30
2022-11-14T16:27:10.363Z,87.00
2022-11-14T16:29:37.078Z,87.50
2022-11-14T16:32:04.674Z,87.90
2022-11-14T16:34:31.967Z,87.80
2022-11-14T16:37:01.802Z,88.10
2022-11-14T16:39:29.492Z,88.20
2022-11-14T16:42:01.810Z,87.60
2022-11-14T16:44:30.021Z,88.10
2022-11-14T16:46:57.322Z,88.50
2022-11-14T16:49:24.748Z,88.40
2022-11-14T16:51:52.330Z,88.10
2022-11-14T16:54:21.185Z,88.60
2022-11-14T16:56:48.427Z,89.10
2022-11-14T16:59:16.298Z,88.60
2022-11-14T17:01:43.769Z,88.60
2022-11-14T17:04:10.681Z,88.80
2022-11-14T17:06:38.350Z,89.10
2022-11-14T17:09:06.862Z,89.00
2022-11-14T17:11:34.484Z,89.30
2022-11-14T17:14:02.317Z,89.20
2022-11-14T17:16:34.020Z,89.40
2022-11-14T17:19:02.781Z,90.10
2022-11-14T17:21:30.182Z,90.30
2022-11-14T17:24:01.289Z,89.60
2022-11-14T17:26:29.635Z,89.60
2022-11-14T17:28:56.491Z,89.40
2022-11-14T17:31:23.686Z,90.00
2022-11-14T17:33:53.566Z,90.70
2022-11-14T17:36:23.362Z,91.00
2022-11-14T17:38:51.327Z,90.90
2022-11-14T17:41:21.136Z,90.70
2022-11-14T17:43:56.633Z,90.60
2022-11-14T17:46:23.784Z,90.50
2022-11-14T17:48:50.619Z,90.50
2022-11-14T17:51:19.147Z,91.30
2022-11-14T17:53:50.357Z,91.20
2022-11-14T17:56:27.934Z,91.70
2022-11-14T17:58:55.299Z,91.60
2022-11-14T18:01:24.472Z,91.90
2022-11-14T18:03:52.202Z,91.70
2022-11-14T18:06:20.856Z,90.90
2022-11-14T18:08:50.913Z,90.60
2022-11-14T18:11:20.330Z,90.80
2022-11-14T18:13:55.063Z,91.00
2022-11-14T18:16:44.501Z,91.30
2022-11-14T18:19:15.455Z,91.20
2022-11-14T18:21:47.953Z,91.20
2022-11-14T18:24:19.524Z,90.90
2022-11-14T18:26:47.675Z,91.10
2022-11-14T18:29:17.802Z,91.30
2022-11-14T18:31:48.416Z,91.80
2022-11-14T18:34:15.955Z,91.70
2022-11-14T18:36:43.328Z,92.20
2022-11-14T18:39:10.157Z,92.10
2022-11-14T18:41:37.023Z,92.50
2022-11-14T18:44:05.517Z,92.30
2022-11-14T18:46:37.534Z,91.90
2022-11-14T18:49:04.624Z,92.10
2022-11-14T18:51:31.854Z,92.00
2022-11-14T18:54:01.359Z,92.10
2022-11-14T18:56:28.527Z,92.30
2022-11-14T18:58:57.006Z,92.40
2022-11-14T19:01:29.913Z,92.40
2022-11-14T19:04:04.116Z,91.90
2022-11-14T19:06:33.192Z,91.20
2022-11-14T19:09:11.388Z,91.50
2022-11-14T19:11:57.571Z,91.50
2022-11-14T19:14:27.843Z,92.10
2022-11-14T19:16:55.425Z,91.60
2022-11-14T19:19:23.715Z,91.60
2022-11-14T19:21:56.106Z,91.90
2022-11-14T19:24:23.392Z,92.20
2022-11-14T19:26:50.277Z,91.60
2022-11-14T19:29:19.578Z,91.10
2022-11-14T19:31:46.690Z,91.60
2022-11-14T19:34:14.993Z,91.80
2022-11-14T19:39:33.053Z,92.70
2022-11-14T19:42:03.183Z,92.10
2022-11-14T19:44:30.253Z,92.40
2022-11-14T19:46:57.341Z,92.10
2022-11-14T19:49:24.221Z,91.50
2022-11-14T19:51:54.340Z,91.50
2022-11-14T19:54:21.610Z,92.10
2022-11-14T19:56:49.519Z,91.90
2022-11-14T19:59:23.191Z,92.00
2022-11-14T20:01:55.536Z,92.20
2022-11-14T20:04:22.959Z,92.30
2022-11-14T20:06:50.355Z,92.20
2022-11-14T20:09:17.667Z,92.20
2022-11-14T20:11:44.651Z,92.10
2022-11-14T20:14:12.926Z,92.10
2022-11-14T20:16:39.962Z,91.60
2022-11-14T20:19:06.996Z,92.10
2022-11-14T20:21:35.268Z,92.90
2022-11-14T20:24:02.366Z,93.00
2022-11-14T20:26:29.670Z,92.80
2022-11-14T20:28:56.560Z,92.50
2022-11-14T20:31:25.868Z,92.20
2022-11-14T20:33:56.430Z,92.40
2022-11-14T20:36:32.056Z,92.20
2022-11-14T20:39:06.203Z,92.00
2022-11-14T20:41:33.901Z,91.90
2022-11-14T20:44:02.298Z,92.70
2022-11-14T20:46:29.656Z,92.30
2022-11-14T20:48:56.977Z,92.60
2022-11-14T20:51:25.555Z,92.50
2022-11-14T20:53:55.377Z,93.00
2022-11-14T20:56:23.148Z,92.90
2022-11-14T20:58:53.185Z,92.50
2022-11-14T21:01:20.795Z,92.40
2022-11-14T21:03:48.472Z,92.10
2022-11-14T21:06:16.717Z,92.50
2022-11-14T21:08:43.763Z,91.80
2022-11-14T21:11:17.972Z,92.20
2022-11-14T21:13:56.489Z,92.30
2022-11-14T21:16:35.276Z,92.40
2022-11-14T21:19:03.023Z,92.80
2022-11-14T21:21:32.782Z,92.60
2022-11-14T21:23:59.562Z,92.30
2022-11-14T21:26:29.145Z,92.60
2022-11-14T21:28:59.062Z,92.70
2022-11-14T21:31:31.461Z,92.60
2022-11-14T21:34:00.227Z,92.60
2022-11-14T21:39:16.720Z,92.40
2022-11-14T21:41:45.963Z,92.50
2022-11-14T21:44:14.614Z,92.60
2022-11-14T21:46:41.496Z,92.70
2022-11-14T21:49:09.182Z,93.00
2022-11-14T21:51:36.072Z,93.00
2022-11-14T21:54:03.047Z,92.20
2022-11-14T21:56:31.953Z,92.80
2022-11-14T21:59:18.363Z,92.70
2022-11-14T22:02:08.481Z,92.90
2022-11-14T22:04:36.115Z,93.20
2022-11-14T22:07:07.846Z,92.90
2022-11-14T22:09:35.202Z,93.10
2022-11-14T22:12:02.175Z,93.20
2022-11-14T22:14:29.477Z,93.00
2022-11-14T22:16:56.437Z,92.90
2022-11-14T22:19:24.279Z,93.00
2022-11-14T22:21:51.404Z,92.80
2022-11-14T22:24:18.231Z,92.90
2022-11-14T22:26:45.290Z,92.80
2022-11-14T22:29:12.070Z,92.50
2022-11-14T22:31:38.818Z,92.60
2022-11-14T22:34:05.998Z,92.60
2022-11-14T22:36:33.397Z,92.00
2022-11-14T22:39:00.142Z,91.80
2022-11-14T22:41:32.643Z,92.70
2022-11-14T22:44:00.494Z,92.70
2022-11-14T22:46:27.791Z,92.50
2022-11-14T22:48:55.049Z,92.80
2022-11-14T22:51:26.716Z,92.80
2022-11-14T22:53:56.289Z,92.20
2022-11-14T22:56:26.388Z,92.10
2022-11-14T22:58:53.101Z,92.40
2022-11-14T23:01:24.610Z,92.40
2022-11-14T23:04:03.185Z,92.40
2022-11-14T23:06:32.128Z,92.20
2022-11-14T23:09:00.016Z,92.50
2022-11-14T23:11:29.624Z,92.60
2022-11-14T23:13:58.299Z,92.80
2022-11-14T23:16:30.890Z,93.00
2022-11-14T23:19:00.471Z,92.80
2022-11-14T23:21:33.640Z,92.60
2022-11-14T23:24:02.775Z,92.50
2022-11-14T23:26:30.570Z,92.40
2022-11-14T23:28:57.295Z,92.40
2022-11-14T23:31:24.905Z,92.80
2022-11-14T23:33:53.740Z,92.90
2022-11-14T23:36:20.776Z,92.80
2022-11-14T23:38:47.665Z,93.20
2022-11-14T23:41:19.780Z,93.50
2022-11-14T23:43:47.167Z,93.70
2022-11-14T23:46:14.545Z,93.60
2022-11-14T23:48:41.603Z,93.10
2022-11-14T23:51:09.454Z,93.10
2022-11-14T23:53:36.410Z,93.60
2022-11-14T23:56:03.609Z,93.50
2022-11-14T23:58:30.787Z,93.40
